createdAt,value
2019-02-07T00:00:47.515Z,12.33
2019-02-07T00:03:14.341Z,11.27
2019-02-07T00:05:41.281Z,12.40
2019-02-07T00:08:08.155Z,11.23
2019-02-07T00:10:35.389Z,11.20
2019-02-07T00:13:02.203Z,10.37
2019-02-07T00:15:29.091Z,11.17
2019-02-07T00:17:56.204Z,10.43
2019-02-07T00:20:23.316Z,10.57
2019-02-07T00:22:50.208Z,10.87
2019-02-07T00:25:17.018Z,10.30
2019-02-07T00:27:44.001Z,10.13
2019-02-07T00:30:12.136Z,10.03
2019-02-07T00:32:39.100Z,8.77
2019-02-07T00:35:06.663Z,9.70
2019-02-07T00:37:33.613Z,8.80
2019-02-07T00:40:00.582Z,9.10
2019-02-07T00:42:27.696Z,10.07
2019-02-07T00:44:54.991Z,11.77
2019-02-07T00:47:22.228Z,10.17
2019-02-07T00:49:49.074Z,10.03
2019-02-07T00:52:16.032Z,9.70
2019-02-07T00:54:42.984Z,10.10
2019-02-07T00:57:09.873Z,8.30
2019-02-07T00:59:36.823Z,9.40
2019-02-07T01:02:03.939Z,9.83
2019-02-07T01:04:31.612Z,10.13
2019-02-07T01:07:00.623Z,9.17
2019-02-07T01:09:27.570Z,9.17
2019-02-07T01:11:54.659Z,10.17
2019-02-07T01:14:21.588Z,9.90
2019-02-07T01:16:48.407Z,8.67
2019-02-07T01:19:15.289Z,9.27
2019-02-07T01:21:42.785Z,10.30
2019-02-07T01:24:09.911Z,10.43
2019-02-07T01:26:36.736Z,9.93
2019-02-07T01:29:03.704Z,8.53
2019-02-07T01:31:30.585Z,8.50
2019-02-07T01:33:57.552Z,9.70
2019-02-07T01:36:24.462Z,10.67
2019-02-07T01:38:51.431Z,9.23
2019-02-07T01:41:18.611Z,9.60
2019-02-07T01:43:45.488Z,9.50
2019-02-07T01:46:12.400Z,9.20
2019-02-07T01:48:39.782Z,9.83
2019-02-07T01:51:06.838Z,9.83
2019-02-07T01:53:33.827Z,10.27
2019-02-07T01:56:00.667Z,9.83
2019-02-07T01:58:27.643Z,9.53
2019-02-07T02:00:54.864Z,10.00
2019-02-07T02:03:21.833Z,10.90
2019-02-07T02:05:48.680Z,10.27
2019-02-07T02:08:15.540Z,10.07
2019-02-07T02:10:42.367Z,10.20
2019-02-07T02:13:09.323Z,9.80
2019-02-07T02:15:36.149Z,9.77
2019-02-07T02:18:03.582Z,9.50
2019-02-07T02:20:30.631Z,10.17
2019-02-07T02:22:57.504Z,9.60
2019-02-07T02:25:24.378Z,9.50
2019-02-07T02:27:51.387Z,9.03
2019-02-07T02:30:20.435Z,8.90
2019-02-07T02:32:47.303Z,7.63
2019-02-07T02:35:14.321Z,8.60
2019-02-07T02:37:41.522Z,8.80
2019-02-07T02:40:08.575Z,8.23
2019-02-07T02:42:35.459Z,8.30
2019-02-07T02:45:03.238Z,9.10
2019-02-07T02:47:31.127Z,8.37
2019-02-07T02:49:57.998Z,7.77
2019-02-07T02:52:24.804Z,7.73
2019-02-07T02:54:53.486Z,8.30
2019-02-07T02:57:20.526Z,8.20
2019-02-07T02:59:47.420Z,9.13
2019-02-07T03:02:33.257Z,9.70
2019-02-07T03:05:19.866Z,9.67
2019-02-07T03:08:08.646Z,9.50
2019-02-07T03:10:47.211Z,9.37
2019-02-07T03:13:23.976Z,9.30
2019-02-07T03:16:00.971Z,9.77
2019-02-07T03:18:46.530Z,6.87
2019-02-07T03:21:32.138Z,8.47
2019-02-07T03:24:16.126Z,8.87
2019-02-07T03:27:07.795Z,8.73
2019-02-07T03:29:53.128Z,8.93
2019-02-07T03:32:38.262Z,7.90
2019-02-07T03:35:30.508Z,8.03
2019-02-07T03:38:10.789Z,9.10
2019-02-07T03:40:45.932Z,9.20
2019-02-07T03:43:27.982Z,9.57
2019-02-07T03:46:14.607Z,8.83
2019-02-07T03:48:52.597Z,9.17
2019-02-07T03:51:31.107Z,10.20
2019-02-07T03:54:20.280Z,9.73
2019-02-07T03:57:05.759Z,10.60
2019-02-07T03:59:54.975Z,9.80
2019-02-07T04:02:35.104Z,10.73
2019-02-07T04:05:24.704Z,10.20
2019-02-07T04:08:10.139Z,10.27
2019-02-07T04:11:03.129Z,10.17
2019-02-07T04:13:48.292Z,9.80
2019-02-07T04:16:33.741Z,9.07
2019-02-07T04:19:38.472Z,9.97
2019-02-07T04:22:24.097Z,9.30
2019-02-07T04:25:10.784Z,9.77
2019-02-07T04:27:48.097Z,10.00
2019-02-07T04:30:36.430Z,9.10
2019-02-07T04:33:21.549Z,9.77
2019-02-07T04:36:12.369Z,10.63
2019-02-07T04:38:48.551Z,8.70
2019-02-07T04:41:44.155Z,10.13
2019-02-07T04:44:38.317Z,10.33
2019-02-07T04:47:15.351Z,8.90
2019-02-07T04:50:01.929Z,10.50
2019-02-07T04:52:48.665Z,9.53
2019-02-07T04:55:29.933Z,10.73
2019-02-07T04:58:18.204Z,10.40
2019-02-07T05:01:01.836Z,9.77
2019-02-07T05:03:56.036Z,10.60
2019-02-07T05:06:39.316Z,9.90
2019-02-07T05:09:31.067Z,9.50
2019-02-07T05:12:13.756Z,10.30
2019-02-07T05:15:04.185Z,10.00
2019-02-07T05:17:53.690Z,10.23
2019-02-07T05:20:39.193Z,10.80
2019-02-07T05:23:28.391Z,9.77
2019-02-07T05:26:27.168Z,10.07
2019-02-07T05:29:08.464Z,11.50
2019-02-07T05:31:50.263Z,9.97
2019-02-07T05:34:35.389Z,10.70
2019-02-07T05:37:24.627Z,9.80
2019-02-07T05:39:59.875Z,10.60
2019-02-07T05:42:45.841Z,10.20
2019-02-07T05:45:32.740Z,10.40
2019-02-07T05:48:34.577Z,10.57
2019-02-07T05:51:11.932Z,10.40
2019-02-07T05:53:48.511Z,10.00
2019-02-07T05:56:32.548Z,9.57
2019-02-07T05:59:24.799Z,9.33
2019-02-07T06:02:14.658Z,9.57
2019-02-07T06:04:48.900Z,8.90
2019-02-07T06:07:34.040Z,9.87
2019-02-07T06:10:30.610Z,8.60
2019-02-07T06:13:15.789Z,9.47
2019-02-07T06:15:52.315Z,8.70
2019-02-07T06:18:37.411Z,9.80
2019-02-07T06:21:29.254Z,8.67
2019-02-07T06:24:06.825Z,9.40
2019-02-07T06:26:45.058Z,8.97
2019-02-07T06:29:23.939Z,8.87
2019-02-07T06:32:17.819Z,9.77
2019-02-07T06:35:02.865Z,10.20
2019-02-07T06:37:46.648Z,9.70
2019-02-07T06:40:24.076Z,7.90
2019-02-07T06:43:10.093Z,9.20
2019-02-07T06:45:55.891Z,9.20
2019-02-07T06:48:54.234Z,9.23
2019-02-07T06:51:29.340Z,10.27
2019-02-07T06:54:05.387Z,11.17
2019-02-07T06:56:43.512Z,10.90
2019-02-07T06:59:48.032Z,9.40
2019-02-07T07:02:30.102Z,11.43
2019-02-07T07:05:22.288Z,11.77
2019-02-07T07:08:19.100Z,10.67
2019-02-07T07:10:55.658Z,9.80
2019-02-07T07:13:43.695Z,10.50
2019-02-07T07:16:28.949Z,11.87
2019-02-07T07:19:33.605Z,11.20
2019-02-07T07:22:16.339Z,11.40
2019-02-07T07:25:01.353Z,9.77
2019-02-07T07:27:37.084Z,9.93
2019-02-07T07:30:16.017Z,11.03
2019-02-07T07:32:51.636Z,11.43
2019-02-07T07:35:38.316Z,11.20
2019-02-07T07:38:23.540Z,11.60
2019-02-07T07:41:10.133Z,10.83
2019-02-07T07:44:05.457Z,11.77
2019-02-07T07:46:50.755Z,12.67
2019-02-07T07:49:32.853Z,11.63
2019-02-07T07:52:22.809Z,12.70
2019-02-07T07:55:15.404Z,13.10
2019-02-07T07:58:04.709Z,13.43
2019-02-07T08:00:52.851Z,11.30
2019-02-07T08:03:34.449Z,11.70
2019-02-07T08:06:22.483Z,14.00
2019-02-07T08:08:56.576Z,12.30
2019-02-07T08:11:33.477Z,13.30
2019-02-07T08:14:08.468Z,12.07
2019-02-07T08:17:01.812Z,12.53
2019-02-07T08:19:46.558Z,12.07
2019-02-07T08:22:42.435Z,11.80
2019-02-07T08:25:37.898Z,12.93
2019-02-07T08:28:17.828Z,12.77
2019-02-07T08:30:50.925Z,13.20
2019-02-07T08:33:43.433Z,12.00
2019-02-07T08:36:19.941Z,11.17
2019-02-07T08:38:59.221Z,13.60
2019-02-07T08:41:49.060Z,13.97
2019-02-07T08:44:44.767Z,12.30
2019-02-07T08:47:33.832Z,13.70
2019-02-07T08:50:13.880Z,12.43
2019-02-07T08:52:59.360Z,13.37
2019-02-07T08:55:44.571Z,12.50
2019-02-07T08:58:43.192Z,13.60
2019-02-07T09:01:35.753Z,13.97
2019-02-07T09:04:21.149Z,10.67
2019-02-07T09:07:15.568Z,12.73
2019-02-07T09:10:01.102Z,12.57
2019-02-07T09:12:55.076Z,12.53
2019-02-07T09:15:43.869Z,12.73
2019-02-07T09:18:29.048Z,12.47
2019-02-07T09:21:09.778Z,11.37
2019-02-07T09:24:03.159Z,12.57
2019-02-07T09:26:37.871Z,12.53
2019-02-07T09:29:21.997Z,11.63
2019-02-07T09:32:17.475Z,12.00
2019-02-07T09:35:04.311Z,12.87
2019-02-07T09:38:00.014Z,12.43
2019-02-07T09:40:45.635Z,12.23
2019-02-07T09:43:27.893Z,13.20
2019-02-07T09:46:12.676Z,14.90
2019-02-07T09:48:58.158Z,14.20
2019-02-07T09:51:39.819Z,13.73
2019-02-07T09:54:25.516Z,12.00
2019-02-07T09:57:08.149Z,12.70
2019-02-07T09:59:53.389Z,14.53
2019-02-07T10:02:33.465Z,13.07
2019-02-07T10:05:09.413Z,12.00
2019-02-07T10:08:10.883Z,14.27
2019-02-07T10:10:44.252Z,13.37
2019-02-07T10:13:40.307Z,13.57
2019-02-07T10:16:34.277Z,12.53
2019-02-07T10:19:19.681Z,12.80
2019-02-07T10:22:05.198Z,10.50
2019-02-07T10:24:57.204Z,12.60
2019-02-07T10:27:55.491Z,13.53
2019-02-07T10:30:44.981Z,12.47
2019-02-07T10:33:40.664Z,13.40
2019-02-07T10:36:26.008Z,12.77
2019-02-07T10:39:24.658Z,10.57
2019-02-07T10:42:19.399Z,12.67
2019-02-07T10:45:04.699Z,13.07
2019-02-07T10:47:49.750Z,12.80
2019-02-07T10:50:41.644Z,13.43
2019-02-07T10:53:43.287Z,12.87
2019-02-07T10:56:33.044Z,13.80
2019-02-07T10:59:19.748Z,12.10
2019-02-07T11:02:09.345Z,13.00
2019-02-07T11:04:55.884Z,12.87
2019-02-07T11:07:46.908Z,12.97
2019-02-07T11:10:51.507Z,11.73
2019-02-07T11:13:40.939Z,12.80
2019-02-07T11:16:26.065Z,12.33
2019-02-07T11:19:04.263Z,12.40
2019-02-07T11:21:56.771Z,11.93
2019-02-07T11:24:42.412Z,12.27
2019-02-07T11:27:27.696Z,11.53
2019-02-07T11:30:04.175Z,11.77
2019-02-07T11:32:40.834Z,12.20
2019-02-07T11:35:18.196Z,11.50
2019-02-07T11:38:03.199Z,9.77
2019-02-07T11:40:52.888Z,11.30
2019-02-07T11:43:45.690Z,11.10
2019-02-07T11:46:23.126Z,8.53
2019-02-07T11:49:16.236Z,10.20
2019-02-07T11:52:13.127Z,10.03
2019-02-07T11:55:02.229Z,10.90
2019-02-07T11:57:38.461Z,9.90
2019-02-07T12:00:33.680Z,10.17
2019-02-07T12:03:18.828Z,10.20
2019-02-07T12:06:11.325Z,11.40
2019-02-07T12:08:46.803Z,10.03
2019-02-07T12:11:35.580Z,10.30
2019-02-07T12:14:16.935Z,10.23
2019-02-07T12:17:02.535Z,10.33
2019-02-07T12:19:47.612Z,11.50
2019-02-07T12:22:45.403Z,9.70
2019-02-07T12:25:31.246Z,10.73
2019-02-07T12:28:09.076Z,10.00
2019-02-07T12:31:03.675Z,10.30
2019-02-07T12:33:38.499Z,9.33
2019-02-07T12:36:25.108Z,9.80
2019-02-07T12:39:11.160Z,8.43
2019-02-07T12:41:55.972Z,9.40
2019-02-07T12:44:45.588Z,9.80
2019-02-07T12:47:29.239Z,8.40
2019-02-07T12:50:09.688Z,8.73
2019-02-07T12:52:51.933Z,7.27
2019-02-07T12:55:37.162Z,9.33
2019-02-07T12:58:12.179Z,8.53
2019-02-07T13:00:58.512Z,8.83
2019-02-07T13:03:48.015Z,8.90
2019-02-07T13:06:27.168Z,8.70
2019-02-07T13:09:19.508Z,8.70
2019-02-07T13:12:01.429Z,8.77
2019-02-07T13:14:48.063Z,9.93
2019-02-07T13:17:34.911Z,9.37
2019-02-07T13:20:11.061Z,8.50
2019-02-07T13:22:54.143Z,9.40
2019-02-07T13:25:38.783Z,8.60
2019-02-07T13:28:33.687Z,9.60
2019-02-07T13:31:23.085Z,8.10
2019-02-07T13:34:01.587Z,9.70
2019-02-07T13:36:41.993Z,8.03
2019-02-07T13:39:43.543Z,8.40
2019-02-07T13:42:18.515Z,8.27
2019-02-07T13:45:05.219Z,9.50
2019-02-07T13:47:56.257Z,9.37
2019-02-07T13:50:41.216Z,11.20
2019-02-07T13:53:26.656Z,10.60
2019-02-07T13:56:03.896Z,8.43
2019-02-07T13:58:49.440Z,9.80
2019-02-07T14:01:30.964Z,8.63
2019-02-07T14:04:15.160Z,7.40
2019-02-07T14:07:00.583Z,9.40
2019-02-07T14:09:46.453Z,9.70
2019-02-07T14:12:35.407Z,10.60
2019-02-07T14:15:12.063Z,9.23
2019-02-07T14:17:58.937Z,9.90
2019-02-07T14:20:44.491Z,9.10
2019-02-07T14:23:31.508Z,10.87
2019-02-07T14:26:21.019Z,10.33
2019-02-07T14:28:56.541Z,10.47
2019-02-07T14:31:51.937Z,10.80
2019-02-07T14:34:32.418Z,10.70
2019-02-07T14:37:19.437Z,12.03
2019-02-07T14:40:00.482Z,11.00
2019-02-07T14:42:47.423Z,11.33
2019-02-07T14:45:32.624Z,10.93
2019-02-07T14:47:59.432Z,11.37
2019-02-07T14:50:27.015Z,10.50
2019-02-07T14:52:53.898Z,12.20
2019-02-07T14:55:21.201Z,11.83
2019-02-07T14:57:48.086Z,10.03
2019-02-07T15:00:16.691Z,12.00
2019-02-07T15:02:43.576Z,9.73
2019-02-07T15:05:10.660Z,10.03
2019-02-07T15:07:37.500Z,11.80
2019-02-07T15:10:05.181Z,11.73
2019-02-07T15:12:32.001Z,12.30
2019-02-07T15:14:58.831Z,10.30
2019-02-07T15:17:25.779Z,10.13
2019-02-07T15:19:52.600Z,10.03
2019-02-07T15:22:19.520Z,10.30
2019-02-07T15:24:46.413Z,9.63
2019-02-07T15:27:13.362Z,10.90
2019-02-07T15:29:40.388Z,9.67
2019-02-07T15:32:07.559Z,9.00
2019-02-07T15:34:34.685Z,7.80
2019-02-07T15:37:01.630Z,9.20
2019-02-07T15:39:28.705Z,8.90
2019-02-07T15:41:55.816Z,9.30
2019-02-07T15:44:22.799Z,9.33
2019-02-07T15:46:49.659Z,8.83
2019-02-07T15:49:16.913Z,9.30
2019-02-07T15:51:45.176Z,9.10
2019-02-07T15:54:12.128Z,8.80
2019-02-07T15:56:39.081Z,9.80
2019-02-07T15:59:24.610Z,10.37
2019-02-07T16:01:58.603Z,9.57
2019-02-07T16:04:28.338Z,10.07
2019-02-07T16:06:55.239Z,9.10
2019-02-07T16:09:22.456Z,10.23
2019-02-07T16:11:51.805Z,9.47
2019-02-07T16:14:18.120Z,10.07
2019-02-07T16:16:45.044Z,10.40
2019-02-07T16:19:11.904Z,9.90
2019-02-07T16:21:38.848Z,9.90
2019-02-07T16:24:06.126Z,10.50
2019-02-07T16:26:33.222Z,10.70
2019-02-07T16:29:00.098Z,11.40
2019-02-07T16:31:27.160Z,10.67
2019-02-07T16:33:54.133Z,10.30
2019-02-07T16:36:21.299Z,11.43
2019-02-07T16:38:48.520Z,10.23
2019-02-07T16:41:15.447Z,10.60
2019-02-07T16:43:42.365Z,10.27
2019-02-07T16:46:09.520Z,10.80
2019-02-07T16:48:36.468Z,10.50
2019-02-07T16:51:03.569Z,13.20
2019-02-07T16:53:30.465Z,10.60
2019-02-07T16:55:57.301Z,11.07
2019-02-07T16:58:24.160Z,13.00
2019-02-07T17:00:51.167Z,11.90
2019-02-07T17:03:19.428Z,11.70
2019-02-07T17:05:46.612Z,11.33
2019-02-07T17:08:13.479Z,12.10
2019-02-07T17:10:40.596Z,11.90
2019-02-07T17:13:07.704Z,11.87
2019-02-07T17:15:35.216Z,11.20
2019-02-07T17:18:02.189Z,11.87
2019-02-07T17:20:29.095Z,11.80
2019-02-07T17:22:56.043Z,11.20
2019-02-07T17:25:23.328Z,11.67
2019-02-07T17:27:50.335Z,12.03
2019-02-07T17:30:17.291Z,12.10
2019-02-07T17:32:44.592Z,13.47
2019-02-07T17:35:11.559Z,12.53
2019-02-07T17:37:38.465Z,13.30
2019-02-07T17:40:07.111Z,11.43
2019-02-07T17:42:34.117Z,12.20
2019-02-07T17:45:01.032Z,13.77
2019-02-07T17:47:27.993Z,12.20
2019-02-07T17:49:54.803Z,13.17
2019-02-07T17:52:22.079Z,13.10
2019-02-07T17:54:49.101Z,12.70
2019-02-07T17:57:17.225Z,13.13
2019-02-07T17:59:44.256Z,13.73
2019-02-07T18:02:13.389Z,13.50
2019-02-07T18:04:40.388Z,12.77
2019-02-07T18:07:07.415Z,15.60
2019-02-07T18:09:34.309Z,14.60
2019-02-07T18:12:01.227Z,13.73
2019-02-07T18:14:28.136Z,13.73
2019-02-07T18:16:55.291Z,13.70
2019-02-07T18:19:22.269Z,12.70
2019-02-07T18:21:49.079Z,13.67
2019-02-07T18:24:16.160Z,13.43
2019-02-07T18:26:43.039Z,12.83
2019-02-07T18:29:10.374Z,13.57
2019-02-07T18:31:37.292Z,12.97
2019-02-07T18:34:04.213Z,13.77
2019-02-07T18:36:31.086Z,14.00
2019-02-07T18:38:58.283Z,14.67
2019-02-07T18:41:25.191Z,13.43
2019-02-07T18:43:52.006Z,14.07
2019-02-07T18:46:18.941Z,15.00
2019-02-07T18:48:46.244Z,13.40
2019-02-07T18:51:13.125Z,16.13
2019-02-07T18:53:40.085Z,14.70
2019-02-07T18:56:07.041Z,14.90
2019-02-07T18:58:33.957Z,14.53
2019-02-07T19:01:01.003Z,15.50
2019-02-07T19:03:27.910Z,14.43
2019-02-07T19:05:54.805Z,15.13
2019-02-07T19:08:23.114Z,17.17
2019-02-07T19:10:50.041Z,15.40
2019-02-07T19:13:16.919Z,15.70
2019-02-07T19:15:48.645Z,15.97
2019-02-07T19:18:15.555Z,14.93
2019-02-07T19:20:42.464Z,16.30
2019-02-07T19:23:09.382Z,15.73
2019-02-07T19:25:36.663Z,15.97
2019-02-07T19:28:04.434Z,15.93
2019-02-07T19:30:31.388Z,16.33
2019-02-07T19:32:58.577Z,17.53
2019-02-07T19:35:25.560Z,15.37
2019-02-07T19:37:52.513Z,17.40
2019-02-07T19:40:19.457Z,18.67
2019-02-07T19:42:46.367Z,18.90
2019-02-07T19:45:14.174Z,17.63
2019-02-07T19:47:41.159Z,17.47
2019-02-07T19:50:09.322Z,18.93
2019-02-07T19:52:36.434Z,20.17
2019-02-07T19:55:05.785Z,18.53
2019-02-07T19:57:32.659Z,19.03
2019-02-07T19:59:59.586Z,17.97
2019-02-07T20:02:26.860Z,17.90
2019-02-07T20:04:53.736Z,19.77
2019-02-07T20:07:20.955Z,18.10
2019-02-07T20:09:47.817Z,18.40
2019-02-07T20:12:14.674Z,19.20
2019-02-07T20:14:41.536Z,20.13
2019-02-07T20:17:08.506Z,19.47
2019-02-07T20:19:35.459Z,21.57
2019-02-07T20:22:02.431Z,20.50
2019-02-07T20:24:29.492Z,19.40
2019-02-07T20:26:56.323Z,19.77
2019-02-07T20:29:23.232Z,21.07
2019-02-07T20:31:50.173Z,22.13
2019-02-07T20:34:17.181Z,19.80
2019-02-07T20:36:44.029Z,18.33
2019-02-07T20:39:11.036Z,21.17
2019-02-07T20:41:37.996Z,18.83
2019-02-07T20:44:06.026Z,21.60
2019-02-07T20:46:33.115Z,19.93
2019-02-07T20:48:59.964Z,20.60
2019-02-07T20:51:26.936Z,20.77
2019-02-07T20:53:53.788Z,20.27
2019-02-07T20:56:20.709Z,20.60
2019-02-07T20:58:47.609Z,21.73
2019-02-07T21:01:14.521Z,20.50
2019-02-07T21:03:41.427Z,20.27
2019-02-07T21:06:09.036Z,21.80
2019-02-07T21:08:35.937Z,21.37
2019-02-07T21:11:03.057Z,20.43
2019-02-07T21:13:30.090Z,21.67
2019-02-07T21:15:56.985Z,20.87
2019-02-07T21:18:23.897Z,23.20
2019-02-07T21:20:50.910Z,19.60
2019-02-07T21:23:17.829Z,18.30
2019-02-07T21:25:46.083Z,21.97
2019-02-07T21:28:13.118Z,28.97
2019-02-07T21:30:39.960Z,22.97
2019-02-07T21:33:07.086Z,18.70
2019-02-07T21:35:34.166Z,23.47
2019-02-07T21:38:01.281Z,22.87
2019-02-07T21:40:28.613Z,22.03
2019-02-07T21:42:55.987Z,20.57
2019-02-07T21:45:22.975Z,19.90
2019-02-07T21:47:50.502Z,20.50
2019-02-07T21:50:19.333Z,19.93
2019-02-07T21:52:46.192Z,20.37
2019-02-07T21:55:14.216Z,22.47
2019-02-07T21:57:41.225Z,17.53
2019-02-07T22:00:12.621Z,17.30
2019-02-07T22:02:39.785Z,21.20
2019-02-07T22:05:07.210Z,19.80
2019-02-07T22:07:34.209Z,19.63
2019-02-07T22:10:01.123Z,19.77
2019-02-07T22:12:27.983Z,20.33
2019-02-07T22:14:54.831Z,20.93
2019-02-07T22:17:21.716Z,16.77
2019-02-07T22:19:49.048Z,18.73
2019-02-07T22:22:16.033Z,18.73
2019-02-07T22:24:43.228Z,19.10
2019-02-07T22:27:10.112Z,20.37
2019-02-07T22:29:38.692Z,20.13
2019-02-07T22:32:05.539Z,16.97
2019-02-07T22:34:33.118Z,23.07
2019-02-07T22:37:00.150Z,20.20
2019-02-07T22:39:27.092Z,18.90
2019-02-07T22:41:54.319Z,19.67
2019-02-07T22:44:23.032Z,20.57
2019-02-07T22:46:49.989Z,17.73
2019-02-07T22:49:17.307Z,18.43
2019-02-07T22:51:44.281Z,18.60
2019-02-07T22:54:11.195Z,17.13
2019-02-07T22:56:45.079Z,18.87
2019-02-07T22:59:06.842Z,18.10
2019-02-07T23:01:39.303Z,19.10
2019-02-07T23:04:06.836Z,19.67
2019-02-07T23:06:33.703Z,18.97
2019-02-07T23:09:00.759Z,20.07
2019-02-07T23:11:28.110Z,19.10
2019-02-07T23:13:55.048Z,18.90
2019-02-07T23:16:22.112Z,19.70
2019-02-07T23:18:49.044Z,18.17
2019-02-07T23:21:15.964Z,19.33
2019-02-07T23:23:43.207Z,18.90
2019-02-07T23:26:10.096Z,17.73
2019-02-07T23:28:36.977Z,19.23
2019-02-07T23:31:05.121Z,19.27
2019-02-07T23:33:32.370Z,20.33
2019-02-07T23:36:00.133Z,20.00
2019-02-07T23:38:27.701Z,20.40
2019-02-07T23:40:54.737Z,18.60
2019-02-07T23:43:21.682Z,18.60
2019-02-07T23:45:48.784Z,17.60
2019-02-07T23:48:15.808Z,18.97
2019-02-07T23:50:42.788Z,19.30
2019-02-07T23:53:14.804Z,17.50
2019-02-07T23:55:38.786Z,18.77
2019-02-07T23:58:05.884Z,18.90
